Time;durP1;ratioP1;P1;durP2;ratioP2;P2;SDS_P1;SDS_P2;PMS_P1;PMS_P2;Temp;Humidity;BMP_temperature;BMP_pressure;BME280_temperature;BME280_humidity;BME280_pressure;Samples;Min_cycle;Max_cycle;Signal;HPM_P1;HPM_P2
2021/12/26 00:01:59;;;;;;;51.33;20.83;;;;;;;;;;5110922;28;20225;-78
2021/12/26 00:04:26;;;;;;;46.50;19.67;;;;;;;;;;5110706;27;20228;-78
2021/12/26 00:06:53;;;;;;;39.57;19.30;;;;;;;;;;5112601;28;20190;-78
2021/12/26 00:09:20;;;;;;;48.90;20.00;;;;;;;;;;5110757;28;20197;-78
2021/12/26 00:11:48;;;;;;;46.23;19.77;;;;;;;;;;5111974;28;20250;-78
2021/12/26 00:14:15;;;;;;;47.57;21.60;;;;;;;;;;5109581;28;20234;-78
2021/12/26 00:16:43;;;;;;;49.77;21.07;;;;;;;;;;5111891;27;20281;-78
2021/12/26 00:19:11;;;;;;;42.67;20.27;;;;;;;;;;5112059;28;20213;-78
2021/12/26 00:21:39;;;;;;;40.60;20.17;;;;;;;;;;5112682;28;20280;-78
2021/12/26 00:24:06;;;;;;;42.30;18.70;;;;;;;;;;5112667;28;20304;-78
2021/12/26 00:26:33;;;;;;;38.20;18.87;;;;;;;;;;5112354;28;20224;-78
2021/12/26 00:29:01;;;;;;;34.23;18.40;;;;;;;;;;5111256;27;20708;-78
2021/12/26 00:31:28;;;;;;;34.60;17.13;;;;;;;;;;5111904;28;20248;-78
2021/12/26 00:33:55;;;;;;;37.67;16.67;;;;;;;;;;5111585;28;20273;-78
2021/12/26 00:36:24;;;;;;;39.63;17.40;;;;;;;;;;5112396;28;20208;-78
2021/12/26 00:38:51;;;;;;;32.10;16.27;;;;;;;;;;5099924;28;20320;-78
2021/12/26 00:41:18;;;;;;;30.13;15.77;;;;;;;;;;5112121;28;20280;-78
2021/12/26 00:43:46;;;;;;;29.97;15.67;;;;;;;;;;5112402;28;20224;-79
2021/12/26 00:46:13;;;;;;;29.60;15.57;;;;;;;;;;5112248;28;20206;-78
2021/12/26 00:48:41;;;;;;;33.53;16.33;;;;;;;;;;5112297;28;20194;-78
2021/12/26 00:51:08;;;;;;;31.60;15.93;;;;;;;;;;5111282;28;20284;-79
2021/12/26 00:53:36;;;;;;;28.37;15.50;;;;;;;;;;5110721;28;20281;-79
2021/12/26 00:56:04;;;;;;;28.70;15.80;;;;;;;;;;5111345;28;20270;-78
2021/12/26 00:58:31;;;;;;;31.10;16.23;;;;;;;;;;5111853;28;20281;-79
2021/12/26 01:00:58;;;;;;;36.53;16.40;;;;;;;;;;5106599;28;20288;-78
2021/12/26 01:03:25;;;;;;;35.87;15.93;;;;;;;;;;5110702;28;20281;-78
2021/12/26 01:05:53;;;;;;;33.67;16.43;;;;;;;;;;5109461;28;20217;-79
2021/12/26 01:08:29;;;;;;;39.37;16.50;;;;;;;;;;5112056;28;20221;-79
2021/12/26 01:10:59;;;;;;;32.77;16.57;;;;;;;;;;5112203;28;20213;-79
2021/12/26 01:13:30;;;;;;;38.37;16.93;;;;;;;;;;5110781;28;20233;-78
2021/12/26 01:15:59;;;;;;;35.93;16.80;;;;;;;;;;5110946;28;20202;-79
2021/12/26 01:18:28;;;;;;;34.47;16.13;;;;;;;;;;5110762;28;20292;-79
2021/12/26 01:20:59;;;;;;;36.47;16.87;;;;;;;;;;5092116;28;20237;-79
2021/12/26 01:23:27;;;;;;;47.70;17.13;;;;;;;;;;5099525;28;20289;-79
2021/12/26 01:25:55;;;;;;;39.47;16.57;;;;;;;;;;5111188;28;20280;-79
2021/12/26 01:28:28;;;;;;;39.30;16.63;;;;;;;;;;5110737;28;20221;-78
2021/12/26 01:30:55;;;;;;;53.83;17.53;;;;;;;;;;5111092;28;20200;-78
2021/12/26 01:33:22;;;;;;;35.70;16.20;;;;;;;;;;5110502;28;20293;-79
2021/12/26 01:35:49;;;;;;;50.43;16.33;;;;;;;;;;5110827;28;20697;-78
2021/12/26 01:38:17;;;;;;;52.17;16.83;;;;;;;;;;5111018;28;20225;-79
2021/12/26 01:40:49;;;;;;;68.83;16.90;;;;;;;;;;5112105;28;20209;-79
2021/12/26 01:43:17;;;;;;;46.07;16.50;;;;;;;;;;5111152;28;20897;-78
2021/12/26 01:45:45;;;;;;;51.87;16.90;;;;;;;;;;5111400;28;20312;-78
2021/12/26 01:48:13;;;;;;;44.07;15.53;;;;;;;;;;5109932;28;20621;-78
2021/12/26 01:50:41;;;;;;;59.97;16.63;;;;;;;;;;5111271;28;20568;-79
2021/12/26 01:53:10;;;;;;;54.30;16.20;;;;;;;;;;5111700;28;20621;-79
2021/12/26 01:55:41;;;;;;;46.07;15.17;;;;;;;;;;5111237;28;20206;-78
2021/12/26 01:58:09;;;;;;;56.87;16.03;;;;;;;;;;5112038;28;20254;-78
2021/12/26 02:00:37;;;;;;;53.50;16.07;;;;;;;;;;5111414;28;20229;-78
2021/12/26 02:03:06;;;;;;;47.17;15.30;;;;;;;;;;5110975;28;20285;-78
2021/12/26 02:05:33;;;;;;;45.63;15.37;;;;;;;;;;5111241;28;20312;-78
2021/12/26 02:08:01;;;;;;;62.90;14.30;;;;;;;;;;5111212;28;20198;-78
2021/12/26 02:10:28;;;;;;;42.87;14.63;;;;;;;;;;5111774;28;20225;-78
2021/12/26 02:12:55;;;;;;;50.40;14.70;;;;;;;;;;5101952;28;20284;-79
2021/12/26 02:15:22;;;;;;;40.37;13.27;;;;;;;;;;5110555;28;20284;-79
2021/12/26 02:17:50;;;;;;;43.63;14.20;;;;;;;;;;5110623;28;20228;-78
2021/12/26 02:20:20;;;;;;;46.83;15.00;;;;;;;;;;5111483;28;20566;-78
2021/12/26 02:22:54;;;;;;;55.77;14.80;;;;;;;;;;5111279;28;20297;-78
2021/12/26 02:25:30;;;;;;;55.70;14.57;;;;;;;;;;5110222;28;20759;-78
2021/12/26 02:27:57;;;;;;;50.97;14.10;;;;;;;;;;5111575;28;20201;-79
2021/12/26 02:30:24;;;;;;;60.03;14.50;;;;;;;;;;5111068;28;20284;-78
2021/12/26 02:32:52;;;;;;;40.37;13.60;;;;;;;;;;5111466;28;20260;-78
2021/12/26 02:35:21;;;;;;;39.17;13.37;;;;;;;;;;5111881;28;20221;-78
2021/12/26 02:37:49;;;;;;;31.67;12.27;;;;;;;;;;5111372;28;20244;-78
2021/12/26 02:40:18;;;;;;;31.17;12.63;;;;;;;;;;5111058;28;20255;-78
2021/12/26 02:42:45;;;;;;;40.13;13.57;;;;;;;;;;5109514;28;20210;-78
2021/12/26 02:45:12;;;;;;;31.20;11.70;;;;;;;;;;5108154;28;20252;-79
2021/12/26 02:47:40;;;;;;;38.67;10.77;;;;;;;;;;5113675;28;20728;-79
2021/12/26 02:50:10;;;;;;;27.07;11.07;;;;;;;;;;5106944;28;20622;-79
2021/12/26 02:52:39;;;;;;;24.23;9.80;;;;;;;;;;5115127;28;20281;-78
2021/12/26 02:55:07;;;;;;;23.13;9.43;;;;;;;;;;5114293;28;20217;-79
2021/12/26 02:57:34;;;;;;;23.73;8.70;;;;;;;;;;5114630;28;20236;-78
2021/12/26 03:00:02;;;;;;;21.37;8.73;;;;;;;;;;5112963;28;20302;-78
2021/12/26 03:02:29;;;;;;;23.50;8.30;;;;;;;;;;5114479;27;20201;-79
2021/12/26 03:04:56;;;;;;;23.50;8.27;;;;;;;;;;5114789;28;20210;-79
2021/12/26 03:07:24;;;;;;;19.40;7.93;;;;;;;;;;5114972;28;20229;-79
2021/12/26 03:09:59;;;;;;;19.63;7.40;;;;;;;;;;5115249;28;20285;-78
2021/12/26 03:12:26;;;;;;;17.83;7.40;;;;;;;;;;5114089;28;20220;-78
2021/12/26 03:14:54;;;;;;;25.73;7.20;;;;;;;;;;5112458;28;20700;-79
2021/12/26 03:17:21;;;;;;;18.03;7.50;;;;;;;;;;5111632;28;20289;-78
2021/12/26 03:19:48;;;;;;;22.87;7.13;;;;;;;;;;5113825;28;20285;-78
2021/12/26 03:22:16;;;;;;;22.23;7.93;;;;;;;;;;5113677;28;20720;-78
2021/12/26 03:24:43;;;;;;;24.10;7.60;;;;;;;;;;5112063;27;20218;-78
2021/12/26 03:27:11;;;;;;;21.87;7.40;;;;;;;;;;5113485;28;20267;-79
2021/12/26 03:29:39;;;;;;;28.20;7.73;;;;;;;;;;5113203;28;20329;-78
2021/12/26 03:32:07;;;;;;;29.47;7.50;;;;;;;;;;5103634;28;20229;-78
2021/12/26 03:34:34;;;;;;;26.03;8.17;;;;;;;;;;5113858;28;20272;-79
2021/12/26 03:37:01;;;;;;;20.53;7.20;;;;;;;;;;5112945;28;20320;-79
2021/12/26 03:39:28;;;;;;;17.87;6.97;;;;;;;;;;5113207;28;20288;-79
2021/12/26 03:41:56;;;;;;;19.40;6.27;;;;;;;;;;5107065;28;20205;-78
2021/12/26 03:44:24;;;;;;;21.50;6.23;;;;;;;;;;5112430;28;20276;-78
2021/12/26 03:46:51;;;;;;;23.07;5.90;;;;;;;;;;5113216;28;20248;-79
2021/12/26 03:49:19;;;;;;;19.23;6.30;;;;;;;;;;5113430;28;20238;-79
2021/12/26 03:51:46;;;;;;;19.73;5.63;;;;;;;;;;5113198;28;20230;-79
2021/12/26 03:54:13;;;;;;;21.27;6.23;;;;;;;;;;5112523;28;20280;-78
2021/12/26 03:56:40;;;;;;;20.43;5.43;;;;;;;;;;5113465;28;20206;-78
2021/12/26 03:59:08;;;;;;;22.83;5.80;;;;;;;;;;5113467;28;20642;-79
2021/12/26 04:01:37;;;;;;;21.57;5.70;;;;;;;;;;5107831;28;20248;-79
2021/12/26 04:04:04;;;;;;;23.23;6.13;;;;;;;;;;5113179;28;20240;-79
2021/12/26 04:06:32;;;;;;;22.70;6.43;;;;;;;;;;5113426;28;20253;-79
2021/12/26 04:08:59;;;;;;;24.37;6.37;;;;;;;;;;5106590;28;20285;-78
2021/12/26 04:11:26;;;;;;;27.83;6.63;;;;;;;;;;5113401;28;20205;-78
2021/12/26 04:13:53;;;;;;;23.10;6.53;;;;;;;;;;5113088;28;20546;-78
2021/12/26 04:16:20;;;;;;;17.93;5.63;;;;;;;;;;5113095;28;20632;-78
2021/12/26 04:18:49;;;;;;;24.83;6.60;;;;;;;;;;5112946;28;20623;-79
2021/12/26 04:21:16;;;;;;;21.53;6.30;;;;;;;;;;5112782;28;20332;-78
2021/12/26 04:23:43;;;;;;;22.53;6.40;;;;;;;;;;5112775;28;20286;-78
2021/12/26 04:26:10;;;;;;;24.37;6.00;;;;;;;;;;5111997;28;20249;-78
2021/12/26 04:28:38;;;;;;;26.70;5.83;;;;;;;;;;5113065;28;20289;-79
2021/12/26 04:31:05;;;;;;;25.03;6.57;;;;;;;;;;5113154;28;20300;-78
2021/12/26 04:33:32;;;;;;;18.77;6.07;;;;;;;;;;5112167;28;20229;-78
2021/12/26 04:36:01;;;;;;;24.63;5.83;;;;;;;;;;5113091;28;20591;-78
2021/12/26 04:38:28;;;;;;;18.83;5.70;;;;;;;;;;5111769;28;20260;-79
2021/12/26 04:40:55;;;;;;;19.93;5.60;;;;;;;;;;5112855;28;20233;-78
2021/12/26 04:43:24;;;;;;;26.23;5.70;;;;;;;;;;5111153;28;20225;-79
2021/12/26 04:45:51;;;;;;;29.60;6.17;;;;;;;;;;5112898;27;20218;-79
2021/12/26 04:48:19;;;;;;;23.23;5.63;;;;;;;;;;5098444;28;20608;-79
2021/12/26 04:50:46;;;;;;;21.40;5.97;;;;;;;;;;5111624;28;20297;-79
2021/12/26 04:53:15;;;;;;;25.83;5.80;;;;;;;;;;5106044;28;20296;-78
2021/12/26 04:55:42;;;;;;;23.73;6.00;;;;;;;;;;5111785;28;20784;-79
2021/12/26 04:58:09;;;;;;;23.70;5.77;;;;;;;;;;5112551;28;20204;-78
2021/12/26 05:00:36;;;;;;;26.03;6.00;;;;;;;;;;5112395;28;20314;-79
2021/12/26 05:03:04;;;;;;;23.60;5.67;;;;;;;;;;5111367;28;20699;-79
2021/12/26 05:05:31;;;;;;;24.17;5.53;;;;;;;;;;5112131;28;20225;-79
2021/12/26 05:07:59;;;;;;;22.43;5.80;;;;;;;;;;5111839;28;20232;-79
2021/12/26 05:10:28;;;;;;;26.50;5.13;;;;;;;;;;5110588;28;20281;-79
2021/12/26 05:12:56;;;;;;;17.43;5.03;;;;;;;;;;5097256;28;20216;-79
2021/12/26 05:15:23;;;;;;;19.43;4.90;;;;;;;;;;5112068;28;20592;-79
2021/12/26 05:17:50;;;;;;;18.43;4.87;;;;;;;;;;5111477;28;20293;-78
2021/12/26 05:20:19;;;;;;;19.57;5.00;;;;;;;;;;5111969;28;20193;-79
2021/12/26 05:22:46;;;;;;;16.90;4.27;;;;;;;;;;5110344;28;20201;-79
2021/12/26 05:25:14;;;;;;;16.23;4.00;;;;;;;;;;5111611;28;20308;-78
2021/12/26 05:27:43;;;;;;;17.67;4.20;;;;;;;;;;5111560;28;20229;-79
2021/12/26 05:30:12;;;;;;;18.67;3.77;;;;;;;;;;5111376;28;20233;-78
2021/12/26 05:32:39;;;;;;;18.10;4.10;;;;;;;;;;5111119;28;20202;-78
2021/12/26 05:35:07;;;;;;;18.33;4.43;;;;;;;;;;5111760;28;20285;-79
2021/12/26 05:37:34;;;;;;;15.57;3.63;;;;;;;;;;5112042;28;20268;-79
2021/12/26 05:40:02;;;;;;;17.83;3.80;;;;;;;;;;5111139;28;20228;-79
2021/12/26 05:42:30;;;;;;;16.23;3.60;;;;;;;;;;5111724;28;20223;-78
2021/12/26 05:44:59;;;;;;;18.37;4.33;;;;;;;;;;5110444;28;20288;-79
2021/12/26 05:47:26;;;;;;;20.17;4.60;;;;;;;;;;5110928;28;20366;-78
2021/12/26 05:49:53;;;;;;;16.17;4.20;;;;;;;;;;5110408;28;20204;-78
2021/12/26 05:52:21;;;;;;;17.37;4.13;;;;;;;;;;5111315;28;20288;-79
2021/12/26 05:54:48;;;;;;;23.50;4.70;;;;;;;;;;5110369;28;20193;-78
2021/12/26 05:57:16;;;;;;;19.13;5.13;;;;;;;;;;5111912;28;20308;-79
2021/12/26 05:59:43;;;;;;;18.40;4.10;;;;;;;;;;5111300;28;20227;-78
2021/12/26 06:02:12;;;;;;;19.07;4.23;;;;;;;;;;5111746;28;20280;-78
2021/12/26 06:04:39;;;;;;;15.20;4.07;;;;;;;;;;5111062;28;20205;-78
2021/12/26 06:07:07;;;;;;;20.07;4.17;;;;;;;;;;5111010;28;20218;-78
2021/12/26 06:09:35;;;;;;;20.10;4.63;;;;;;;;;;5111331;28;20226;-79
2021/12/26 06:12:02;;;;;;;24.00;4.30;;;;;;;;;;5111718;28;20236;-79
2021/12/26 06:14:29;;;;;;;13.67;4.17;;;;;;;;;;5111596;28;20577;-79
2021/12/26 06:16:56;;;;;;;26.70;4.23;;;;;;;;;;5115544;27;20285;-79
2021/12/26 06:19:25;;;;;;;20.40;3.77;;;;;;;;;;5115013;28;20285;-79
2021/12/26 06:21:52;;;;;;;21.57;4.10;;;;;;;;;;5114343;28;20736;-79
2021/12/26 06:24:19;;;;;;;25.87;5.03;;;;;;;;;;5114704;28;20200;-79
2021/12/26 06:26:47;;;;;;;22.47;4.33;;;;;;;;;;5114756;28;20304;-79
2021/12/26 06:29:15;;;;;;;20.73;4.07;;;;;;;;;;5115752;28;20251;-79
2021/12/26 06:31:42;;;;;;;20.50;4.13;;;;;;;;;;5115390;27;20209;-78
2021/12/26 06:34:09;;;;;;;17.37;3.77;;;;;;;;;;5108117;28;20286;-78
2021/12/26 06:36:38;;;;;;;22.50;4.20;;;;;;;;;;5114813;28;20287;-79
2021/12/26 06:39:05;;;;;;;22.37;3.90;;;;;;;;;;5114940;28;20284;-79
2021/12/26 06:41:33;;;;;;;21.07;3.93;;;;;;;;;;5114559;28;20296;-79
2021/12/26 06:44:00;;;;;;;23.47;4.10;;;;;;;;;;5115397;27;20316;-79
2021/12/26 06:46:28;;;;;;;17.50;3.40;;;;;;;;;;5114218;28;20735;-78
2021/12/26 06:48:56;;;;;;;19.00;3.50;;;;;;;;;;5110864;28;20627;-79
2021/12/26 06:51:23;;;;;;;19.27;4.10;;;;;;;;;;5115370;28;20284;-79
2021/12/26 06:53:51;;;;;;;16.30;3.57;;;;;;;;;;5115216;27;20242;-78
2021/12/26 06:56:19;;;;;;;25.07;4.30;;;;;;;;;;5115200;28;20585;-79
2021/12/26 06:58:46;;;;;;;27.67;4.93;;;;;;;;;;5114368;28;20288;-79
2021/12/26 07:01:13;;;;;;;26.20;5.27;;;;;;;;;;5114711;28;20280;-78
2021/12/26 07:03:41;;;;;;;19.23;3.80;;;;;;;;;;5114628;28;20550;-78
2021/12/26 07:06:08;;;;;;;24.53;4.00;;;;;;;;;;5113757;28;20226;-78
2021/12/26 07:08:35;;;;;;;17.47;4.03;;;;;;;;;;5114579;28;20284;-79
2021/12/26 07:11:04;;;;;;;18.10;3.83;;;;;;;;;;5114620;28;20298;-78
2021/12/26 07:13:31;;;;;;;24.40;3.83;;;;;;;;;;5115027;27;20229;-78
2021/12/26 07:15:58;;;;;;;23.33;4.03;;;;;;;;;;5113773;28;20198;-78
2021/12/26 07:18:26;;;;;;;22.57;3.93;;;;;;;;;;5113326;28;20285;-79
2021/12/26 07:20:53;;;;;;;23.00;3.83;;;;;;;;;;5103121;28;20193;-78
2021/12/26 07:23:20;;;;;;;21.77;3.77;;;;;;;;;;5114254;28;20303;-79
2021/12/26 07:25:47;;;;;;;21.60;3.70;;;;;;;;;;5114520;28;20308;-78
2021/12/26 07:28:16;;;;;;;21.03;4.13;;;;;;;;;;5112947;28;20229;-79
2021/12/26 07:30:43;;;;;;;26.77;4.47;;;;;;;;;;5114445;28;20293;-79
2021/12/26 07:33:10;;;;;;;21.20;3.57;;;;;;;;;;5113097;28;20248;-78
2021/12/26 07:35:37;;;;;;;23.27;4.10;;;;;;;;;;5113383;28;20232;-79
2021/12/26 07:38:05;;;;;;;19.13;4.30;;;;;;;;;;5114166;27;20320;-79
2021/12/26 07:40:32;;;;;;;19.43;3.93;;;;;;;;;;5114066;27;20289;-78
2021/12/26 07:42:59;;;;;;;26.50;4.07;;;;;;;;;;5114249;28;20292;-78
2021/12/26 07:45:27;;;;;;;24.50;4.27;;;;;;;;;;5112931;28;20212;-78
2021/12/26 07:47:55;;;;;;;28.63;6.03;;;;;;;;;;5113746;28;20245;-78
2021/12/26 07:50:22;;;;;;;24.93;4.87;;;;;;;;;;5113245;28;20685;-79
2021/12/26 07:52:52;;;;;;;27.97;4.77;;;;;;;;;;5112944;28;20284;-78
2021/12/26 07:55:19;;;;;;;24.10;5.73;;;;;;;;;;5113030;28;20656;-79
2021/12/26 07:57:48;;;;;;;31.80;5.80;;;;;;;;;;5113985;28;20226;-78
2021/12/26 08:00:16;;;;;;;31.37;5.33;;;;;;;;;;5113917;28;20225;-79
2021/12/26 08:02:45;;;;;;;30.63;6.90;;;;;;;;;;5113061;28;20281;-78
2021/12/26 08:05:12;;;;;;;24.70;5.50;;;;;;;;;;5113485;28;20315;-78
2021/12/26 08:07:39;;;;;;;23.17;5.37;;;;;;;;;;5113033;28;20296;-78
2021/12/26 08:10:07;;;;;;;25.20;4.60;;;;;;;;;;5112556;28;20298;-79
2021/12/26 08:12:34;;;;;;;27.07;5.13;;;;;;;;;;5113788;28;20281;-79
2021/12/26 08:15:02;;;;;;;21.50;4.93;;;;;;;;;;5112306;28;20232;-78
2021/12/26 08:17:29;;;;;;;25.87;5.80;;;;;;;;;;5113544;28;20219;-78
2021/12/26 08:19:58;;;;;;;27.80;7.47;;;;;;;;;;5112698;28;20288;-78
2021/12/26 08:22:25;;;;;;;31.43;8.47;;;;;;;;;;5112891;28;20237;-78
2021/12/26 08:24:52;;;;;;;23.40;6.67;;;;;;;;;;5112154;28;20273;-79
2021/12/26 08:27:20;;;;;;;25.30;5.90;;;;;;;;;;5112511;28;20305;-78
2021/12/26 08:29:47;;;;;;;21.90;4.33;;;;;;;;;;5112816;28;20224;-78
2021/12/26 08:32:16;;;;;;;20.83;4.10;;;;;;;;;;5112249;28;20205;-79
2021/12/26 08:34:44;;;;;;;24.70;4.33;;;;;;;;;;5112462;28;20197;-78
2021/12/26 08:37:14;;;;;;;20.63;4.27;;;;;;;;;;5112702;28;20861;-78
2021/12/26 08:39:42;;;;;;;29.67;4.03;;;;;;;;;;5112087;28;20866;-78
2021/12/26 08:42:10;;;;;;;20.73;4.67;;;;;;;;;;5112460;28;20284;-79
2021/12/26 08:44:38;;;;;;;23.60;4.50;;;;;;;;;;5111693;28;20277;-78
2021/12/26 08:47:06;;;;;;;35.00;4.93;;;;;;;;;;5112159;28;20301;-79
2021/12/26 08:49:33;;;;;;;22.97;4.17;;;;;;;;;;5112089;28;20225;-79
2021/12/26 08:52:01;;;;;;;30.10;4.90;;;;;;;;;;5112659;28;20280;-79
2021/12/26 08:54:32;;;;;;;25.93;4.27;;;;;;;;;;5112021;28;20233;-79
2021/12/26 08:57:00;;;;;;;24.17;4.63;;;;;;;;;;5112545;28;20210;-78
2021/12/26 08:59:30;;;;;;;22.03;4.37;;;;;;;;;;5111247;28;20696;-78
2021/12/26 09:01:57;;;;;;;23.50;4.00;;;;;;;;;;5112224;28;20202;-79
2021/12/26 09:04:25;;;;;;;22.90;4.47;;;;;;;;;;5106421;28;20236;-79
2021/12/26 09:06:53;;;;;;;21.23;3.90;;;;;;;;;;5112423;28;20328;-77
2021/12/26 09:09:20;;;;;;;27.00;4.63;;;;;;;;;;5112714;28;20262;-78
2021/12/26 09:11:49;;;;;;;26.13;6.83;;;;;;;;;;5111750;28;20288;-78
2021/12/26 09:14:16;;;;;;;26.53;5.23;;;;;;;;;;5104747;28;20226;-78
2021/12/26 09:16:43;;;;;;;18.27;4.30;;;;;;;;;;5110621;28;20312;-78
2021/12/26 09:19:10;;;;;;;21.83;4.20;;;;;;;;;;5112066;28;20233;-78
2021/12/26 09:21:37;;;;;;;20.83;4.37;;;;;;;;;;5110021;28;20305;-78
2021/12/26 09:24:05;;;;;;;17.57;3.73;;;;;;;;;;5111430;28;20625;-77
2021/12/26 09:26:32;;;;;;;17.57;3.63;;;;;;;;;;5110224;28;20704;-77
2021/12/26 09:29:01;;;;;;;21.07;3.73;;;;;;;;;;5109805;28;20276;-78
2021/12/26 09:31:28;;;;;;;28.43;4.60;;;;;;;;;;5110239;28;20234;-78
2021/12/26 09:33:55;;;;;;;21.07;4.63;;;;;;;;;;5109764;28;20280;-78
2021/12/26 09:36:22;;;;;;;18.17;4.17;;;;;;;;;;5110950;28;20221;-78
2021/12/26 09:38:50;;;;;;;15.27;3.90;;;;;;;;;;5109593;28;20321;-77
2021/12/26 09:41:17;;;;;;;26.33;4.60;;;;;;;;;;5110485;28;20193;-77
2021/12/26 09:43:44;;;;;;;19.90;4.53;;;;;;;;;;5110905;28;20200;-77
2021/12/26 09:46:13;;;;;;;17.33;4.60;;;;;;;;;;5110355;28;20220;-77
2021/12/26 09:48:40;;;;;;;19.23;4.53;;;;;;;;;;5111093;28;20284;-78
2021/12/26 09:51:08;;;;;;;17.27;4.30;;;;;;;;;;5108299;28;20293;-77
2021/12/26 09:53:39;;;;;;;20.37;4.67;;;;;;;;;;5106373;28;20276;-78
2021/12/26 09:56:07;;;;;;;18.87;5.10;;;;;;;;;;5109160;28;20214;-78
2021/12/26 09:58:34;;;;;;;20.53;5.37;;;;;;;;;;5110154;28;20235;-78
2021/12/26 10:01:02;;;;;;;19.83;5.03;;;;;;;;;;5110699;28;20226;-77
2021/12/26 10:03:34;;;;;;;23.67;5.43;;;;;;;;;;5109788;28;20237;-78
2021/12/26 10:06:12;;;;;;;23.90;5.57;;;;;;;;;;5108955;28;20202;-74
2021/12/26 10:08:56;;;;;;;20.10;5.03;;;;;;;;;;5108755;28;20257;-77
2021/12/26 10:11:24;;;;;;;18.53;4.17;;;;;;;;;;5110964;28;20635;-77
2021/12/26 10:13:52;;;;;;;25.43;5.17;;;;;;;;;;5111317;28;20285;-77
2021/12/26 10:16:22;;;;;;;23.40;5.03;;;;;;;;;;5110423;28;20289;-77
2021/12/26 10:18:51;;;;;;;20.40;4.90;;;;;;;;;;5110934;28;20273;-77
2021/12/26 10:21:39;;;;;;;19.27;4.90;;;;;;;;;;5110290;28;20221;-77
2021/12/26 10:24:08;;;;;;;17.67;4.57;;;;;;;;;;5111265;28;20285;-77
2021/12/26 10:26:37;;;;;;;20.17;5.30;;;;;;;;;;5110346;28;20221;-77
2021/12/26 10:29:05;;;;;;;19.83;4.90;;;;;;;;;;5110655;28;20281;-77
2021/12/26 10:31:32;;;;;;;16.87;4.20;;;;;;;;;;5111467;28;20285;-77
2021/12/26 10:34:01;;;;;;;23.27;4.90;;;;;;;;;;5111472;28;20394;-78
2021/12/26 10:36:28;;;;;;;18.60;4.23;;;;;;;;;;5110441;28;20292;-77
2021/12/26 10:39:08;;;;;;;22.20;4.77;;;;;;;;;;5104416;28;20202;-78
2021/12/26 10:41:40;;;;;;;18.07;4.47;;;;;;;;;;5106867;28;20288;-78
2021/12/26 10:44:08;;;;;;;16.33;4.33;;;;;;;;;;5109562;28;20205;-78
2021/12/26 10:46:37;;;;;;;17.27;4.80;;;;;;;;;;5110560;28;20205;-79
2021/12/26 10:49:23;;;;;;;18.10;6.10;;;;;;;;;;5110007;28;20289;-78
2021/12/26 10:51:51;;;;;;;19.90;7.40;;;;;;;;;;5096358;28;20280;-78
2021/12/26 10:54:25;;;;;;;19.80;7.37;;;;;;;;;;5110459;28;20289;-78
2021/12/26 10:57:20;;;;;;;22.70;6.60;;;;;;;;;;5109655;28;20214;-79
2021/12/26 10:59:49;;;;;;;17.77;6.23;;;;;;;;;;5047356;28;20192;-78
2021/12/26 11:02:22;;;;;;;19.53;8.13;;;;;;;;;;5048948;28;20199;-78
2021/12/26 11:04:58;;;;;;;17.53;6.33;;;;;;;;;;5050534;28;20675;-78
2021/12/26 11:07:27;;;;;;;20.37;6.17;;;;;;;;;;5050741;28;20353;-78
2021/12/26 11:10:05;;;;;;;19.30;5.20;;;;;;;;;;5050021;28;20214;-78
2021/12/26 11:12:39;;;;;;;19.07;5.57;;;;;;;;;;5050924;28;20750;-79
2021/12/26 11:15:08;;;;;;;14.33;4.87;;;;;;;;;;5050419;28;20231;-78
2021/12/26 11:17:36;;;;;;;13.27;4.90;;;;;;;;;;5051587;28;20283;-78
2021/12/26 11:20:04;;;;;;;11.07;4.10;;;;;;;;;;5051292;28;20292;-78
2021/12/26 11:22:33;;;;;;;15.80;4.60;;;;;;;;;;5047855;28;20231;-79
2021/12/26 11:25:00;;;;;;;10.70;3.93;;;;;;;;;;5049854;28;20282;-78
2021/12/26 11:27:27;;;;;;;10.03;4.30;;;;;;;;;;5050575;28;20765;-78
2021/12/26 11:29:55;;;;;;;15.13;4.90;;;;;;;;;;5050785;28;20667;-78
2021/12/26 11:32:24;;;;;;;11.40;4.67;;;;;;;;;;5049770;28;20670;-78
2021/12/26 11:34:51;;;;;;;11.33;4.30;;;;;;;;;;5064126;28;20720;-78
2021/12/26 11:37:19;;;;;;;12.47;4.27;;;;;;;;;;5112412;28;20297;-79
2021/12/26 11:39:48;;;;;;;9.47;4.07;;;;;;;;;;5112085;28;20193;-78
2021/12/26 11:42:41;;;;;;;12.17;5.07;;;;;;;;;;5112988;28;20228;-78
2021/12/26 11:45:12;;;;;;;9.03;4.83;;;;;;;;;;5109239;28;20222;-78
2021/12/26 11:47:58;;;;;;;13.23;4.70;;;;;;;;;;5113352;28;20214;-78
2021/12/26 11:50:29;;;;;;;13.73;5.70;;;;;;;;;;5112956;28;20281;-78
2021/12/26 11:53:14;;;;;;;12.50;5.70;;;;;;;;;;5113670;28;20284;-78
2021/12/26 11:55:51;;;;;;;10.30;4.57;;;;;;;;;;5103218;28;20309;-78
2021/12/26 11:58:29;;;;;;;9.27;4.53;;;;;;;;;;5111417;28;20189;-78
2021/12/26 12:00:59;;;;;;;11.30;4.00;;;;;;;;;;5107769;28;20280;-78
2021/12/26 12:03:27;;;;;;;8.67;4.03;;;;;;;;;;5107993;27;20220;-78
2021/12/26 12:05:55;;;;;;;7.97;3.47;;;;;;;;;;5110583;28;20197;-78
2021/12/26 12:08:28;;;;;;;6.20;3.87;;;;;;;;;;5107742;28;20301;-78
2021/12/26 12:10:58;;;;;;;5.30;3.00;;;;;;;;;;5108552;28;20284;-79
2021/12/26 12:13:48;;;;;;;7.00;4.07;;;;;;;;;;5111468;28;20202;-79
2021/12/26 12:16:29;;;;;;;7.57;3.00;;;;;;;;;;5100017;28;20631;-78
2021/12/26 12:18:58;;;;;;;5.90;3.27;;;;;;;;;;5111338;28;20201;-79
2021/12/26 12:21:31;;;;;;;7.03;3.23;;;;;;;;;;5112074;28;20281;-80
2021/12/26 12:23:59;;;;;;;6.03;2.50;;;;;;;;;;5111634;28;20284;-78
2021/12/26 12:26:51;;;;;;;3.57;2.20;;;;;;;;;;5103103;28;20292;-78
2021/12/26 12:29:37;;;;;;;6.00;2.90;;;;;;;;;;5105027;28;20218;-77
2021/12/26 12:32:14;;;;;;;6.70;3.07;;;;;;;;;;5111819;28;20277;-78
2021/12/26 12:34:52;;;;;;;4.83;2.43;;;;;;;;;;5111918;28;20284;-78
2021/12/26 12:37:38;;;;;;;6.50;2.50;;;;;;;;;;5112752;28;20282;-79
2021/12/26 12:40:14;;;;;;;6.53;2.60;;;;;;;;;;5107379;28;20297;-78
2021/12/26 12:42:43;;;;;;;6.73;3.60;;;;;;;;;;5112164;28;20288;-78
2021/12/26 12:45:11;;;;;;;6.57;2.70;;;;;;;;;;5110603;28;20285;-78
2021/12/26 12:47:38;;;;;;;5.67;2.50;;;;;;;;;;5111728;28;20241;-78
2021/12/26 12:50:06;;;;;;;6.17;2.70;;;;;;;;;;5111575;28;20613;-78
2021/12/26 12:52:43;;;;;;;6.97;2.80;;;;;;;;;;5110593;28;20229;-79
2021/12/26 12:55:12;;;;;;;6.20;3.00;;;;;;;;;;5110888;28;20229;-78
2021/12/26 12:57:40;;;;;;;8.23;3.23;;;;;;;;;;5107805;28;20311;-79
2021/12/26 13:00:30;;;;;;;8.87;2.63;;;;;;;;;;5111228;28;20232;-78
2021/12/26 13:02:59;;;;;;;8.27;3.00;;;;;;;;;;5111540;28;20194;-78
2021/12/26 13:05:27;;;;;;;6.13;2.43;;;;;;;;;;5101785;28;20684;-78
2021/12/26 13:07:58;;;;;;;7.70;3.20;;;;;;;;;;5111537;28;20308;-78
2021/12/26 13:10:25;;;;;;;7.60;2.33;;;;;;;;;;5111356;28;20201;-78
2021/12/26 13:12:52;;;;;;;7.43;2.13;;;;;;;;;;5110913;28;20285;-78
2021/12/26 13:15:21;;;;;;;5.40;2.27;;;;;;;;;;5110998;28;20676;-78
2021/12/26 13:17:48;;;;;;;5.13;1.80;;;;;;;;;;5111775;28;20201;-78
2021/12/26 13:20:17;;;;;;;6.23;1.87;;;;;;;;;;5111869;28;20198;-78
2021/12/26 13:22:47;;;;;;;6.90;2.03;;;;;;;;;;5103484;28;20221;-78
2021/12/26 13:25:24;;;;;;;4.73;2.40;;;;;;;;;;5110210;28;20287;-78
2021/12/26 13:27:52;;;;;;;6.33;2.30;;;;;;;;;;5110344;28;20791;-78
2021/12/26 13:30:22;;;;;;;7.13;2.43;;;;;;;;;;5108419;28;20236;-78
2021/12/26 13:32:49;;;;;;;5.60;1.90;;;;;;;;;;5111899;28;20284;-78
2021/12/26 13:35:16;;;;;;;5.40;1.80;;;;;;;;;;5111550;28;20193;-78
2021/12/26 13:37:43;;;;;;;7.53;2.00;;;;;;;;;;5109113;28;20237;-78
2021/12/26 13:40:12;;;;;;;5.77;1.83;;;;;;;;;;5109935;28;20194;-78
2021/12/26 13:42:39;;;;;;;6.60;2.10;;;;;;;;;;5100411;28;20229;-78
2021/12/26 13:45:07;;;;;;;6.43;2.17;;;;;;;;;;5102951;28;20208;-78
2021/12/26 13:47:43;;;;;;;5.20;2.37;;;;;;;;;;5110762;28;20225;-79
2021/12/26 13:50:11;;;;;;;7.90;1.93;;;;;;;;;;5112078;28;20193;-79
2021/12/26 13:52:39;;;;;;;8.13;2.10;;;;;;;;;;5106622;28;20281;-79
2021/12/26 13:55:06;;;;;;;7.70;2.30;;;;;;;;;;5104601;28;20232;-79
2021/12/26 13:57:34;;;;;;;9.60;2.17;;;;;;;;;;5110449;28;20695;-79
2021/12/26 14:00:02;;;;;;;6.77;2.03;;;;;;;;;;5109489;28;20205;-79
2021/12/26 14:02:31;;;;;;;5.30;1.83;;;;;;;;;;5110174;28;20197;-79
2021/12/26 14:05:01;;;;;;;8.30;2.10;;;;;;;;;;5109205;28;20276;-78
2021/12/26 14:07:30;;;;;;;6.77;2.23;;;;;;;;;;5110715;28;20198;-79
2021/12/26 14:09:58;;;;;;;5.90;2.03;;;;;;;;;;5110349;28;20193;-80
2021/12/26 14:12:30;;;;;;;5.40;2.20;;;;;;;;;;5110846;28;20251;-80
2021/12/26 14:15:20;;;;;;;5.20;2.73;;;;;;;;;;5109124;28;20291;-80
2021/12/26 14:17:50;;;;;;;9.17;2.33;;;;;;;;;;5109410;28;20214;-82
2021/12/26 14:20:19;;;;;;;7.13;2.67;;;;;;;;;;5110567;28;20276;-83
2021/12/26 14:22:46;;;;;;;9.07;2.60;;;;;;;;;;5107632;28;20680;-83
2021/12/26 14:25:13;;;;;;;9.53;2.50;;;;;;;;;;5109067;28;20198;-82
2021/12/26 14:27:42;;;;;;;6.37;2.60;;;;;;;;;;5111664;28;20284;-82
2021/12/26 14:30:11;;;;;;;9.23;3.00;;;;;;;;;;5111083;28;20198;-82
2021/12/26 14:32:39;;;;;;;8.43;2.60;;;;;;;;;;5102501;28;20208;-79
2021/12/26 14:35:06;;;;;;;5.77;2.37;;;;;;;;;;5108190;28;20198;-79
2021/12/26 14:37:35;;;;;;;5.90;1.73;;;;;;;;;;5110222;28;20268;-79
2021/12/26 14:40:09;;;;;;;8.03;2.30;;;;;;;;;;5111516;28;20230;-79
2021/12/26 14:42:42;;;;;;;8.77;2.30;;;;;;;;;;4403041;28;10000764;-79